METAR Data
IDs: Format: Raw Decoded Include TAF

Data at: 1345 UTC 21 Apr 2021

METAR for:KFSW (Fort Madison Muni, IA, US)
Text:KFSW 211335Z AUTO 31005KT 10SM 03/M06 A3020 RMK AO2
Temperature: 3.0°C ( 37°F)
Dewpoint: -6.0°C ( 21°F) [RH = 52%]
Pressure (altimeter):30.20 inches Hg (1022.8 mb)
Winds:from the NW (310 degrees) at 6 MPH (5 knots; 2.6 m/s)
Visibility:10 or more sm (16+ km)
QC Flag:automated observation with no human augmentation